Weir, Texas
Current Conditions -  °F | °C
As of 7:47 PM on Saturday 22 Nov 2014 (Local Time) from KGTU Reporting Station
Thunderstorm Thunderstorm  
Wind Chill: 63°   Ceiling: 9500
Heat Index: 63°   Visibility: 7mi
Dew Point: 61°   Wind: 0mph
Humidity: 94%   Direction: NA
Pressure: 29.8"   Gusts: NA
Location:  30.67°N, 97.58°W
Report Text: KGTU 230147Z 00000KT 7SM TSRA SCT070 OVC095 17/16 A2980 RMK TS OVHD MOVG E FREQ LTG INCLD CLDG
Loading
Personal Weather Stations






























Interactive Weather Map New forecast layout! Learn more

10-Day Weather Forecast

Advertisements
Track Severe Weather on mobile